Time;durP1;ratioP1;P1;durP2;ratioP2;P2;SDS_P1;SDS_P2;PMS_P1;PMS_P2;Temp;Humidity;BMP_temperature;BMP_pressure;BME280_temperature;BME280_humidity;BME280_pressure;Samples;Min_cycle;Max_cycle;Signal;HPM_P1;HPM_P2
2023/06/21 00:02:05;;;;;;;1.05;0.60;;;24.30;79.60;;;;;;5031782;28;20199;-84
2023/06/21 00:04:33;;;;;;;0.82;0.82;;;24.20;79.60;;;;;;5041715;28;20223;-84
2023/06/21 00:07:02;;;;;;;0.63;0.50;;;24.20;80.10;;;;;;5043776;27;20219;-85
2023/06/21 00:09:31;;;;;;;1.02;0.93;;;24.20;80.00;;;;;;5051375;27;20206;-84
2023/06/21 00:12:00;;;;;;;0.80;0.80;;;24.20;79.80;;;;;;5037923;28;20590;-84
2023/06/21 00:14:28;;;;;;;0.77;0.50;;;24.20;79.70;;;;;;5048515;28;20197;-84
2023/06/21 00:16:58;;;;;;;0.80;0.70;;;24.20;80.20;;;;;;5035818;27;20196;-84
2023/06/21 00:19:26;;;;;;;0.95;0.95;;;24.20;80.10;;;;;;5036349;28;20199;-84
2023/06/21 00:21:54;;;;;;;0.50;0.50;;;24.20;80.20;;;;;;5037772;27;20302;-85
2023/06/21 00:24:25;;;;;;;1.00;0.60;;;24.10;80.20;;;;;;5038555;28;20535;-86
2023/06/21 00:26:53;;;;;;;0.43;0.43;;;24.10;80.60;;;;;;5029492;27;20204;-84
2023/06/21 00:29:21;;;;;;;0.57;0.50;;;24.10;80.50;;;;;;5046319;28;20447;-84
2023/06/21 00:31:50;;;;;;;0.57;0.57;;;24.10;80.50;;;;;;5037063;28;20202;-84
2023/06/21 00:34:19;;;;;;;0.88;0.88;;;24.10;80.40;;;;;;5031113;27;20292;-84
2023/06/21 00:36:48;;;;;;;0.82;0.77;;;24.10;80.30;;;;;;5050377;27;20563;-85
2023/06/21 00:39:16;;;;;;;0.88;0.77;;;24.10;80.90;;;;;;5038810;28;20221;-84
2023/06/21 00:41:45;;;;;;;1.17;1.10;;;24.10;81.10;;;;;;5036468;28;20195;-85
2023/06/21 00:44:13;;;;;;;0.90;0.70;;;24.10;81.10;;;;;;5049647;28;20191;-84
2023/06/21 00:46:41;;;;;;;1.75;0.70;;;24.10;81.20;;;;;;5063506;27;20192;-83
2023/06/21 00:49:09;;;;;;;0.35;0.30;;;24.10;81.10;;;;;;5048920;28;20196;-85
2023/06/21 00:51:40;;;;;;;0.40;0.40;;;24.10;81.10;;;;;;5049991;28;20195;-85
2023/06/21 00:54:15;;;;;;;3.25;1.20;;;24.10;80.90;;;;;;5044052;27;20216;-84
2023/06/21 00:56:45;;;;;;;2.00;1.35;;;24.10;80.90;;;;;;5040037;27;20201;-84
2023/06/21 00:59:13;;;;;;;1.23;0.70;;;24.10;80.80;;;;;;5053228;28;20571;-84
2023/06/21 01:01:42;;;;;;;0.68;0.68;;;24.00;80.60;;;;;;5037755;28;20191;-82
2023/06/21 01:04:11;;;;;;;1.23;1.05;;;24.00;80.60;;;;;;5055265;27;20280;-83
2023/06/21 01:06:50;;;;;;;0.80;0.80;;;24.00;80.50;;;;;;5036895;28;20191;-83
2023/06/21 01:09:31;;;;;;;0.50;0.50;;;24.00;80.60;;;;;;5032578;27;20550;-83
2023/06/21 01:12:07;;;;;;;1.15;1.05;;;24.00;80.60;;;;;;5030297;28;20271;-83
2023/06/21 01:14:44;;;;;;;0.60;0.52;;;24.00;80.60;;;;;;5039078;27;20191;-83
2023/06/21 01:17:14;;;;;;;1.25;0.43;;;23.90;80.60;;;;;;5035082;28;20188;-84
2023/06/21 01:19:50;;;;;;;0.68;0.68;;;23.90;80.50;;;;;;5037348;28;20716;-84
2023/06/21 01:22:37;;;;;;;1.65;0.90;;;23.90;80.70;;;;;;5034495;28;20230;-83
2023/06/21 01:25:23;;;;;;;0.38;0.38;;;23.90;80.80;;;;;;5061020;27;20700;-83
2023/06/21 01:28:02;;;;;;;1.23;0.50;;;23.90;80.80;;;;;;5043842;28;20195;-85
2023/06/21 01:30:33;;;;;;;0.75;0.60;;;23.80;80.90;;;;;;5042669;28;20203;-85
2023/06/21 01:33:05;;;;;;;3.90;0.70;;;23.90;80.90;;;;;;5045697;28;20227;-84
2023/06/21 01:35:33;;;;;;;0.95;0.70;;;23.90;81.00;;;;;;5055442;27;20187;-84
2023/06/21 01:38:02;;;;;;;0.80;0.73;;;23.80;81.10;;;;;;5044702;27;20192;-85
2023/06/21 01:40:30;;;;;;;0.43;0.43;;;23.80;81.20;;;;;;5047070;28;20194;-84
2023/06/21 01:42:59;;;;;;;1.05;0.95;;;23.80;81.20;;;;;;5044704;27;20192;-84
2023/06/21 01:45:27;;;;;;;0.35;0.35;;;23.70;81.30;;;;;;5048977;27;20821;-85
2023/06/21 01:47:58;;;;;;;0.43;0.43;;;23.80;81.60;;;;;;5038104;28;20296;-85
2023/06/21 01:50:28;;;;;;;1.15;0.80;;;23.70;81.80;;;;;;5040711;28;20226;-84
2023/06/21 01:52:57;;;;;;;0.77;0.77;;;23.70;81.80;;;;;;5034399;28;20219;-84
2023/06/21 01:55:26;;;;;;;0.65;0.65;;;23.70;81.80;;;;;;5039772;27;20218;-83
2023/06/21 01:57:56;;;;;;;0.95;0.95;;;23.60;81.80;;;;;;5035039;28;20203;-85
2023/06/21 02:00:26;;;;;;;1.42;1.08;;;23.60;82.00;;;;;;5049499;27;20204;-84
2023/06/21 02:03:01;;;;;;;0.50;0.50;;;23.60;82.10;;;;;;5048792;28;20199;-85
2023/06/21 02:05:31;;;;;;;1.08;0.93;;;23.60;82.20;;;;;;5045273;27;20225;-85
2023/06/21 02:08:01;;;;;;;0.73;0.73;;;23.50;82.20;;;;;;5041819;28;20192;-84
2023/06/21 02:10:29;;;;;;;1.48;0.60;;;23.60;82.30;;;;;;5038983;28;20195;-82
2023/06/21 02:12:58;;;;;;;1.60;0.70;;;23.50;82.40;;;;;;5053400;28;20955;-84
2023/06/21 02:15:26;;;;;;;0.63;0.50;;;23.50;82.40;;;;;;5043139;27;20227;-82
2023/06/21 02:17:55;;;;;;;1.60;1.13;;;23.50;82.60;;;;;;5070915;27;20882;-84
2023/06/21 02:20:25;;;;;;;1.45;0.80;;;23.40;82.50;;;;;;5060297;27;20567;-83
2023/06/21 02:22:54;;;;;;;1.10;0.85;;;23.40;82.70;;;;;;5045591;28;20211;-84
2023/06/21 02:25:22;;;;;;;0.45;0.45;;;23.30;82.80;;;;;;5041238;28;20187;-84
2023/06/21 02:27:51;;;;;;;0.60;0.60;;;23.40;82.80;;;;;;5034512;27;21095;-84
2023/06/21 02:30:19;;;;;;;0.75;0.75;;;23.30;82.80;;;;;;5037799;28;20196;-84
2023/06/21 02:32:48;;;;;;;1.38;0.82;;;23.30;82.80;;;;;;5040536;27;20195;-84
2023/06/21 02:35:16;;;;;;;0.68;0.65;;;23.30;83.00;;;;;;5042209;27;20200;-85
2023/06/21 02:37:47;;;;;;;1.02;0.77;;;23.30;83.30;;;;;;5043600;28;20655;-84
2023/06/21 02:40:16;;;;;;;1.63;1.52;;;23.20;83.10;;;;;;5049886;28;20203;-84
2023/06/21 02:42:44;;;;;;;1.75;1.15;;;23.20;83.10;;;;;;5034509;27;20346;-84
2023/06/21 02:45:12;;;;;;;1.20;1.02;;;23.20;83.30;;;;;;5033021;28;20278;-84
2023/06/21 02:47:41;;;;;;;1.02;0.93;;;23.20;83.90;;;;;;5040677;28;20203;-83
2023/06/21 02:50:10;;;;;;;2.13;1.30;;;23.20;83.60;;;;;;5041131;28;20191;-83
2023/06/21 02:52:38;;;;;;;1.13;1.00;;;23.20;83.60;;;;;;5041070;27;20199;-83
2023/06/21 02:55:09;;;;;;;0.98;0.77;;;23.10;83.70;;;;;;5034330;28;20219;-83
2023/06/21 02:57:37;;;;;;;0.60;0.60;;;23.10;83.80;;;;;;5033133;28;20188;-84
2023/06/21 03:00:17;;;;;;;1.40;0.98;;;23.10;83.90;;;;;;5035903;28;20272;-84
2023/06/21 03:02:46;;;;;;;0.65;0.50;;;23.10;84.00;;;;;;5043066;27;20224;-83
2023/06/21 03:05:15;;;;;;;1.02;0.90;;;23.00;84.10;;;;;;5038722;28;20231;-84
2023/06/21 03:07:44;;;;;;;0.45;0.40;;;23.10;84.10;;;;;;5041963;28;20299;-84
2023/06/21 03:10:15;;;;;;;0.63;0.63;;;23.00;84.10;;;;;;5035972;27;20202;-84
2023/06/21 03:12:44;;;;;;;0.40;0.40;;;23.00;84.10;;;;;;5043678;27;20194;-84
2023/06/21 03:15:13;;;;;;;1.33;0.90;;;23.00;84.20;;;;;;5035966;28;20589;-83
2023/06/21 03:17:41;;;;;;;1.27;0.75;;;23.00;84.40;;;;;;5043427;28;20203;-85
2023/06/21 03:20:13;;;;;;;1.10;1.08;;;23.00;84.40;;;;;;5036024;28;20214;-84
2023/06/21 03:22:42;;;;;;;1.02;0.75;;;23.00;84.40;;;;;;5045235;27;20197;-83
2023/06/21 03:25:11;;;;;;;0.90;0.77;;;23.00;84.40;;;;;;5043600;27;20452;-84
2023/06/21 03:27:41;;;;;;;0.45;0.40;;;23.00;84.80;;;;;;5029580;28;20194;-83
2023/06/21 03:30:11;;;;;;;0.52;0.43;;;23.00;84.80;;;;;;5051857;28;20640;-83
2023/06/21 03:32:46;;;;;;;1.27;1.05;;;23.00;85.10;;;;;;5041102;27;20270;-83
2023/06/21 03:35:15;;;;;;;1.05;0.98;;;23.00;85.30;;;;;;5031115;28;20213;-82
2023/06/21 03:37:44;;;;;;;0.65;0.47;;;23.00;85.50;;;;;;5039511;28;20196;-83
2023/06/21 03:40:13;;;;;;;1.00;0.90;;;23.00;85.50;;;;;;5032718;27;20203;-83
2023/06/21 03:42:44;;;;;;;1.40;0.93;;;23.00;85.60;;;;;;5052270;27;20202;-84
2023/06/21 03:45:13;;;;;;;0.43;0.43;;;23.10;85.90;;;;;;5041624;28;20624;-84
2023/06/21 03:47:43;;;;;;;3.90;1.17;;;23.10;86.10;;;;;;5040583;28;20200;-84
2023/06/21 03:50:13;;;;;;;0.50;0.40;;;23.10;86.10;;;;;;5036898;28;20259;-82
2023/06/21 03:52:41;;;;;;;1.45;0.85;;;23.10;86.10;;;;;;5044190;27;20660;-83
2023/06/21 03:55:10;;;;;;;0.70;0.65;;;23.10;86.30;;;;;;5036209;28;20775;-83
2023/06/21 03:57:39;;;;;;;1.67;0.68;;;23.10;86.30;;;;;;5037958;28;20234;-85
2023/06/21 04:00:10;;;;;;;0.95;0.90;;;23.20;87.00;;;;;;5034094;27;20670;-82
2023/06/21 04:02:39;;;;;;;1.25;0.75;;;23.20;86.30;;;;;;5041125;27;20311;-85
2023/06/21 04:05:09;;;;;;;1.73;1.10;;;23.20;86.10;;;;;;5046453;28;20242;-83
2023/06/21 04:07:38;;;;;;;0.57;0.55;;;23.20;86.10;;;;;;5052337;27;20192;-83
2023/06/21 04:10:08;;;;;;;0.93;0.90;;;23.20;86.00;;;;;;5037785;27;20560;-84
2023/06/21 04:12:36;;;;;;;0.70;0.60;;;23.20;85.80;;;;;;5074880;27;20191;-83
2023/06/21 04:15:06;;;;;;;0.52;0.52;;;23.30;85.90;;;;;;5053490;27;20228;-82
2023/06/21 04:17:36;;;;;;;4.78;0.77;;;23.30;85.80;;;;;;5043099;28;20197;-82
2023/06/21 04:20:10;;;;;;;2.83;1.58;;;23.40;85.80;;;;;;5044067;28;20638;-83
2023/06/21 04:22:40;;;;;;;2.35;1.27;;;23.40;85.90;;;;;;5033599;27;20647;-83
2023/06/21 04:25:09;;;;;;;0.60;0.60;;;23.40;86.10;;;;;;5043006;27;20626;-83
2023/06/21 04:27:39;;;;;;;1.40;1.30;;;23.50;86.50;;;;;;5047148;27;20192;-82
2023/06/21 04:30:10;;;;;;;1.10;1.05;;;23.50;86.40;;;;;;5052685;27;20568;-83
2023/06/21 04:32:44;;;;;;;1.17;1.10;;;23.50;86.60;;;;;;5040042;27;20192;-83
2023/06/21 04:35:15;;;;;;;2.95;0.90;;;23.60;86.50;;;;;;5042680;28;20692;-83
2023/06/21 04:37:45;;;;;;;1.25;1.02;;;23.60;86.30;;;;;;5049191;27;20191;-85
2023/06/21 04:40:16;;;;;;;0.70;0.60;;;23.60;86.30;;;;;;5041891;28;20187;-84
2023/06/21 04:42:47;;;;;;;0.90;0.63;;;23.60;86.30;;;;;;5051128;27;20218;-84
2023/06/21 04:45:17;;;;;;;0.70;0.70;;;23.70;86.20;;;;;;5041941;27;20599;-84
2023/06/21 04:47:47;;;;;;;2.40;1.20;;;23.70;86.10;;;;;;5042499;28;20190;-84
2023/06/21 04:50:17;;;;;;;1.20;0.70;;;23.70;86.10;;;;;;5050367;28;20191;-84
2023/06/21 04:52:48;;;;;;;0.60;0.60;;;23.80;86.00;;;;;;5031359;27;20199;-84
2023/06/21 04:55:20;;;;;;;1.38;1.27;;;23.80;85.90;;;;;;5037644;28;20218;-84
2023/06/21 04:57:49;;;;;;;1.27;1.08;;;23.90;85.80;;;;;;5057128;27;20192;-83
2023/06/21 05:00:19;;;;;;;0.98;0.95;;;24.00;85.60;;;;;;5036970;28;20221;-85
2023/06/21 05:02:48;;;;;;;1.60;0.85;;;24.00;85.30;;;;;;5052180;27;20217;-83
2023/06/21 05:05:17;;;;;;;0.55;0.55;;;24.10;85.20;;;;;;5058468;27;20306;-84
2023/06/21 05:07:45;;;;;;;1.08;0.90;;;24.10;84.90;;;;;;5066427;27;20573;-85
2023/06/21 05:10:15;;;;;;;1.58;0.85;;;24.10;84.80;;;;;;5030927;28;20231;-82
2023/06/21 05:12:43;;;;;;;0.95;0.77;;;24.20;84.70;;;;;;5082349;27;20275;-83
2023/06/21 05:15:12;;;;;;;2.60;1.20;;;24.30;84.50;;;;;;5038520;27;20229;-83
2023/06/21 05:17:40;;;;;;;2.10;0.95;;;24.30;84.00;;;;;;5040207;27;20200;-84
2023/06/21 05:20:11;;;;;;;1.02;0.70;;;24.40;83.80;;;;;;5041792;27;20205;-83
2023/06/21 05:22:41;;;;;;;1.08;0.95;;;24.50;83.80;;;;;;5040346;27;20187;-82
2023/06/21 05:25:10;;;;;;;1.67;1.15;;;24.50;83.60;;;;;;5039559;27;20199;-87
2023/06/21 05:27:39;;;;;;;1.45;1.35;;;24.50;83.30;;;;;;5063535;27;20539;-83
2023/06/21 05:30:08;;;;;;;1.15;0.85;;;24.60;83.20;;;;;;5070982;27;20183;-83
2023/06/21 05:32:37;;;;;;;0.52;0.52;;;24.70;83.20;;;;;;5043509;28;20191;-83
2023/06/21 05:35:06;;;;;;;1.25;0.77;;;24.80;83.00;;;;;;5043431;28;20222;-84
2023/06/21 05:37:36;;;;;;;1.77;1.02;;;24.80;82.90;;;;;;5036639;28;20201;-84
2023/06/21 05:40:08;;;;;;;1.02;0.98;;;24.90;82.70;;;;;;5033410;27;20215;-83
2023/06/21 05:42:37;;;;;;;0.65;0.60;;;25.00;82.60;;;;;;5043720;28;20275;-82
2023/06/21 05:45:06;;;;;;;1.67;0.95;;;25.00;82.30;;;;;;5057937;27;20217;-83
2023/06/21 05:47:35;;;;;;;1.17;0.63;;;25.10;82.20;;;;;;5055654;27;20675;-84
2023/06/21 05:50:03;;;;;;;1.67;1.02;;;25.20;81.90;;;;;;5042610;28;20289;-84
2023/06/21 05:52:32;;;;;;;0.95;0.70;;;25.30;81.40;;;;;;5048357;27;20256;-85
2023/06/21 05:55:01;;;;;;;2.53;0.93;;;25.30;80.70;;;;;;5053983;27;20280;-82
2023/06/21 05:57:30;;;;;;;0.63;0.50;;;25.40;80.50;;;;;;5033089;28;20562;-84
2023/06/21 05:59:58;;;;;;;1.30;0.80;;;25.50;80.40;;;;;;5036658;28;20283;-82
2023/06/21 06:02:27;;;;;;;0.68;0.63;;;25.60;80.20;;;;;;5062358;27;20191;-82
2023/06/21 06:04:55;;;;;;;0.60;0.40;;;25.60;80.00;;;;;;5042440;27;20233;-83
2023/06/21 06:07:25;;;;;;;1.23;0.85;;;25.70;79.80;;;;;;5035304;27;20554;-83
2023/06/21 06:09:53;;;;;;;0.40;0.40;;;25.80;79.50;;;;;;5046700;27;20193;-81
2023/06/21 06:12:23;;;;;;;0.88;0.73;;;25.90;79.20;;;;;;5055162;27;20191;-82
2023/06/21 06:14:52;;;;;;;0.50;0.50;;;25.90;79.00;;;;;;5047165;27;20644;-83
2023/06/21 06:17:21;;;;;;;0.80;0.80;;;26.00;78.80;;;;;;5068615;27;20628;-83
2023/06/21 06:19:49;;;;;;;0.75;0.75;;;26.10;78.30;;;;;;5043780;27;20198;-84
2023/06/21 06:22:18;;;;;;;0.82;0.60;;;26.20;78.20;;;;;;5084738;27;20192;-83
2023/06/21 06:24:48;;;;;;;1.20;0.70;;;26.20;77.90;;;;;;5065828;27;20203;-85
2023/06/21 06:27:16;;;;;;;2.00;0.95;;;26.30;77.70;;;;;;5050118;27;20204;-84
2023/06/21 06:29:47;;;;;;;1.42;0.93;;;26.40;77.40;;;;;;5032741;28;20195;-83
2023/06/21 06:32:15;;;;;;;0.75;0.50;;;26.50;77.10;;;;;;5054286;27;20203;-85
2023/06/21 06:34:43;;;;;;;1.65;0.77;;;26.50;76.50;;;;;;5063312;27;20211;-85
2023/06/21 06:37:12;;;;;;;1.85;1.23;;;26.60;76.50;;;;;;5041386;27;20222;-84
2023/06/21 06:39:47;;;;;;;2.10;0.93;;;26.70;76.30;;;;;;5047728;27;20195;-84
2023/06/21 06:42:15;;;;;;;0.55;0.55;;;26.80;76.50;;;;;;5031791;28;20666;-84
2023/06/21 06:44:44;;;;;;;1.10;0.52;;;26.80;76.20;;;;;;5067047;27;20204;-84
2023/06/21 06:47:14;;;;;;;0.65;0.50;;;26.90;76.10;;;;;;5056344;27;20199;-86
2023/06/21 06:49:42;;;;;;;0.57;0.52;;;27.00;75.90;;;;;;5041659;27;20191;-84
2023/06/21 06:52:12;;;;;;;1.20;0.80;;;27.10;75.60;;;;;;5071024;27;20195;-84
2023/06/21 06:54:41;;;;;;;1.80;1.23;;;27.20;75.20;;;;;;5049799;27;20736;-84
2023/06/21 06:57:09;;;;;;;1.48;1.05;;;27.20;74.80;;;;;;5034010;28;20230;-84
2023/06/21 06:59:57;;;;;;;1.38;0.90;;;27.30;74.50;;;;;;5031052;28;20183;-85
2023/06/21 07:02:27;;;;;;;0.85;0.70;;;27.40;73.80;;;;;;5027311;27;20207;-83
2023/06/21 07:04:56;;;;;;;2.58;1.00;;;27.40;73.30;;;;;;5038993;27;20220;-85
2023/06/21 07:07:24;;;;;;;0.77;0.75;;;27.50;73.00;;;;;;5042424;28;22253;-84
2023/06/21 07:09:52;;;;;;;1.42;1.02;;;27.60;72.10;;;;;;5050338;27;20196;-85
2023/06/21 07:12:21;;;;;;;1.23;0.98;;;27.60;71.80;;;;;;5044893;27;21215;-84
2023/06/21 07:14:49;;;;;;;1.75;0.80;;;27.70;72.00;;;;;;5032264;27;20225;-85
2023/06/21 07:17:17;;;;;;;1.75;0.80;;;27.80;72.00;;;;;;5044000;27;20219;-83
2023/06/21 07:19:47;;;;;;;1.75;1.08;;;27.90;71.90;;;;;;5052163;27;20188;-83
2023/06/21 07:22:15;;;;;;;1.23;1.10;;;28.00;72.00;;;;;;5045227;27;20197;-82
2023/06/21 07:24:44;;;;;;;1.33;1.15;;;28.00;71.40;;;;;;5038429;28;20247;-84
2023/06/21 07:27:12;;;;;;;2.70;1.15;;;28.10;69.40;;;;;;5036252;28;20204;-85
2023/06/21 07:29:41;;;;;;;0.65;0.60;;;28.10;69.30;;;;;;5056736;27;20206;-86
2023/06/21 07:32:09;;;;;;;0.45;0.32;;;28.20;69.40;;;;;;5035674;27;20268;-82
2023/06/21 07:34:37;;;;;;;1.27;0.88;;;28.30;68.80;;;;;;5051413;27;21443;-83
2023/06/21 07:37:07;;;;;;;2.38;0.70;;;28.30;67.30;;;;;;5032048;27;20245;-84
2023/06/21 07:39:35;;;;;;;0.38;0.38;;;28.40;67.30;;;;;;5042329;27;20988;-83
2023/06/21 07:42:08;;;;;;;2.03;0.88;;;28.50;67.00;;;;;;5037564;27;21010;-82
2023/06/21 07:44:41;;;;;;;1.20;0.60;;;28.50;65.70;;;;;;5037630;27;20193;-82
2023/06/21 07:47:10;;;;;;;0.95;0.95;;;28.60;66.10;;;;;;5043027;27;20200;-83
2023/06/21 07:49:38;;;;;;;0.40;0.40;;;28.60;64.30;;;;;;5040494;28;20214;-83
2023/06/21 07:52:09;;;;;;;0.30;0.30;;;28.70;63.40;;;;;;5031713;27;20282;-82
2023/06/21 07:54:38;;;;;;;1.05;0.88;;;28.70;62.50;;;;;;5049245;27;20200;-81
2023/06/21 07:57:06;;;;;;;0.98;0.43;;;28.80;63.20;;;;;;5030490;27;20230;-84
2023/06/21 07:59:35;;;;;;;0.40;0.40;;;28.80;62.40;;;;;;5032339;28;20644;-83
2023/06/21 08:02:03;;;;;;;1.27;0.75;;;28.90;62.60;;;;;;5051916;27;20663;-83
2023/06/21 08:04:32;;;;;;;0.47;0.47;;;28.90;62.90;;;;;;5032176;28;20236;-83
2023/06/21 08:07:02;;;;;;;3.70;1.23;;;29.00;62.90;;;;;;5027435;28;20203;-83
2023/06/21 08:09:32;;;;;;;0.85;0.65;;;29.00;62.40;;;;;;5057073;27;20684;-83
2023/06/21 08:12:00;;;;;;;0.93;0.77;;;29.10;62.60;;;;;;5041647;28;20195;-83
2023/06/21 08:14:29;;;;;;;1.33;0.50;;;29.20;63.50;;;;;;5038030;27;20210;-83
2023/06/21 08:16:57;;;;;;;0.25;0.25;;;29.20;62.10;;;;;;5037711;28;20221;-82
2023/06/21 08:19:26;;;;;;;0.43;0.43;;;29.30;61.40;;;;;;5036753;27;20200;-85
2023/06/21 08:21:54;;;;;;;1.08;0.50;;;29.30;61.30;;;;;;5033030;28;20264;-83
2023/06/21 08:24:23;;;;;;;0.73;0.60;;;29.30;60.60;;;;;;5065206;27;20678;-83
2023/06/21 08:26:52;;;;;;;1.38;1.05;;;29.40;58.50;;;;;;5062622;27;20247;-81
2023/06/21 08:29:21;;;;;;;1.20;0.65;;;29.40;59.20;;;;;;5053514;27;20196;-84
2023/06/21 08:31:49;;;;;;;0.98;0.90;;;29.50;59.00;;;;;;5035915;28;20207;-86
2023/06/21 08:34:18;;;;;;;1.48;1.00;;;29.50;59.30;;;;;;5051042;27;20195;-83
2023/06/21 08:36:46;;;;;;;0.73;0.52;;;29.50;58.30;;;;;;5037198;27;20227;-84
2023/06/21 08:39:14;;;;;;;0.60;0.60;;;29.60;58.70;;;;;;5042125;27;20195;-83
2023/06/21 08:41:44;;;;;;;1.08;0.75;;;29.60;59.10;;;;;;5040536;28;20562;-83
2023/06/21 08:44:14;;;;;;;0.30;0.30;;;29.70;59.40;;;;;;5029447;28;20203;-81
2023/06/21 08:46:44;;;;;;;0.40;0.40;;;29.70;58.70;;;;;;5038374;27;20568;-84
2023/06/21 08:49:17;;;;;;;1.77;1.00;;;29.70;58.60;;;;;;5044417;28;20195;-83
2023/06/21 08:51:47;;;;;;;0.60;0.60;;;29.80;58.60;;;;;;5058334;27;20269;-84
2023/06/21 08:54:17;;;;;;;1.15;0.40;;;29.80;59.10;;;;;;5041466;28;20542;-83
2023/06/21 08:56:49;;;;;;;0.63;0.40;;;29.80;58.50;;;;;;5030107;28;20214;-83
2023/06/21 08:59:24;;;;;;;0.57;0.57;;;29.90;58.30;;;;;;5036503;27;20286;-82
2023/06/21 09:01:59;;;;;;;0.43;0.40;;;29.90;58.00;;;;;;5047868;27;20559;-83
2023/06/21 09:04:34;;;;;;;0.50;0.50;;;29.90;58.20;;;;;;5074449;27;20233;-81
2023/06/21 09:07:03;;;;;;;0.63;0.52;;;30.00;58.50;;;;;;5031854;27;20292;-81
2023/06/21 09:09:32;;;;;;;0.70;0.45;;;30.00;58.30;;;;;;5030766;28;20283;-82
2023/06/21 09:12:01;;;;;;;1.20;0.90;;;30.00;57.40;;;;;;5048366;27;20531;-81
2023/06/21 09:14:32;;;;;;;0.75;0.63;;;30.10;57.50;;;;;;5032508;28;20204;-82
2023/06/21 09:17:01;;;;;;;0.93;0.60;;;30.10;57.00;;;;;;5040113;28;20212;-82
2023/06/21 09:19:29;;;;;;;0.80;0.73;;;30.20;57.70;;;;;;5054793;27;20218;-83
2023/06/21 09:21:58;;;;;;;1.13;0.93;;;30.20;58.20;;;;;;5051308;27;20538;-82
2023/06/21 09:24:27;;;;;;;0.40;0.40;;;30.30;57.20;;;;;;5048985;27;20200;-82
2023/06/21 09:26:55;;;;;;;1.92;1.00;;;30.30;56.10;;;;;;5054931;27;20199;-84
2023/06/21 09:29:24;;;;;;;0.93;0.82;;;30.30;56.00;;;;;;5070811;27;20191;-85
2023/06/21 09:31:54;;;;;;;0.57;0.57;;;30.40;56.40;;;;;;5041330;28;20188;-85
2023/06/21 09:34:23;;;;;;;0.35;0.35;;;30.40;55.30;;;;;;5030469;28;20252;-84
2023/06/21 09:36:51;;;;;;;0.50;0.35;;;30.50;55.40;;;;;;5063540;27;20557;-84
2023/06/21 09:39:19;;;;;;;0.60;0.57;;;30.50;55.20;;;;;;5042276;27;20219;-83
2023/06/21 09:41:48;;;;;;;0.45;0.45;;;30.60;55.50;;;;;;5060173;27;20202;-84
2023/06/21 09:44:20;;;;;;;1.02;0.95;;;30.70;55.80;;;;;;5042443;27;20191;-89
2023/06/21 09:46:49;;;;;;;0.40;0.40;;;30.70;55.70;;;;;;5059905;27;20202;-85
2023/06/21 09:49:19;;;;;;;0.88;0.60;;;30.70;54.40;;;;;;5035213;28;20648;-84
2023/06/21 09:51:48;;;;;;;0.68;0.60;;;30.70;54.10;;;;;;5052951;27;20205;-83
2023/06/21 09:54:16;;;;;;;0.50;0.47;;;30.70;54.60;;;;;;5047639;27;20195;-83
2023/06/21 09:56:45;;;;;;;0.40;0.40;;;30.70;54.70;;;;;;5051420;27;20192;-84
2023/06/21 09:59:15;;;;;;;0.85;0.68;;;30.70;55.00;;;;;;5078035;27;20323;-84
2023/06/21 10:01:46;;;;;;;0.60;0.60;;;30.70;55.50;;;;;;5040498;27;20215;-83
2023/06/21 10:04:15;;;;;;;1.88;0.80;;;30.80;55.70;;;;;;5029352;28;20230;-84
2023/06/21 10:06:54;;;;;;;0.60;0.45;;;30.80;55.90;;;;;;5030991;28;20198;-85
2023/06/21 10:09:23;;;;;;;1.02;0.90;;;30.90;56.00;;;;;;5035284;27;20187;-83
2023/06/21 10:11:54;;;;;;;1.10;1.00;;;30.90;55.10;;;;;;5038530;27;20328;-83
2023/06/21 10:14:25;;;;;;;0.85;0.63;;;30.90;54.70;;;;;;5044256;27;20199;-84
2023/06/21 10:16:55;;;;;;;1.73;0.90;;;31.00;55.20;;;;;;5030574;28;20200;-84
2023/06/21 10:19:25;;;;;;;0.65;0.50;;;31.00;55.40;;;;;;5036520;27;20618;-83
2023/06/21 10:21:59;;;;;;;1.02;0.82;;;31.10;55.60;;;;;;5027410;27;20594;-83
2023/06/21 10:24:33;;;;;;;1.88;1.33;;;31.10;55.60;;;;;;5036337;28;20648;-83
2023/06/21 10:27:11;;;;;;;0.82;0.73;;;31.20;55.10;;;;;;5034832;28;20199;-85
2023/06/21 10:29:43;;;;;;;0.85;0.85;;;31.20;55.40;;;;;;5033922;27;20264;-84
2023/06/21 10:32:12;;;;;;;0.80;0.80;;;31.30;55.40;;;;;;5033079;28;20595;-86
2023/06/21 10:34:52;;;;;;;1.73;1.23;;;31.30;55.70;;;;;;5051756;27;20254;-84
2023/06/21 10:37:48;;;;;;;0.40;0.40;;;31.40;55.40;;;;;;5050893;27;20322;-85
2023/06/21 10:40:18;;;;;;;1.65;0.77;;;31.50;55.60;;;;;;5078717;27;20195;-84
2023/06/21 10:42:47;;;;;;;2.78;0.77;;;31.50;54.60;;;;;;5057864;27;20666;-85
2023/06/21 10:45:16;;;;;;;0.77;0.77;;;31.60;54.80;;;;;;5035324;27;20211;-85
2023/06/21 10:47:45;;;;;;;0.80;0.57;;;31.70;54.40;;;;;;5047641;28;20914;-85
2023/06/21 10:50:14;;;;;;;0.32;0.32;;;31.70;53.90;;;;;;5069137;27;23187;-84
2023/06/21 10:52:47;;;;;;;0.50;0.50;;;31.80;53.60;;;;;;5039832;27;20568;-85
2023/06/21 10:55:16;;;;;;;0.50;0.50;;;31.80;53.00;;;;;;5037550;27;20203;-85
2023/06/21 10:57:45;;;;;;;3.03;0.30;;;31.90;52.90;;;;;;5078584;27;20233;-87
2023/06/21 11:00:14;;;;;;;0.95;0.55;;;31.90;53.30;;;;;;5078204;27;20293;-86
2023/06/21 11:02:43;;;;;;;0.70;0.70;;;31.90;53.20;;;;;;5061052;27;20240;-85
2023/06/21 11:05:16;;;;;;;0.40;0.40;;;31.90;52.50;;;;;;5047637;27;20222;-86
2023/06/21 11:07:55;;;;;;;0.55;0.50;;;32.00;53.10;;;;;;5038881;28;20202;-85
2023/06/21 11:10:31;;;;;;;0.68;0.68;;;32.10;53.30;;;;;;5036335;27;20194;-85
2023/06/21 11:13:00;;;;;;;1.10;0.88;;;32.10;52.70;;;;;;5032545;28;20320;-84
2023/06/21 11:15:29;;;;;;;0.63;0.60;;;32.20;53.00;;;;;;5043855;27;20206;-86
2023/06/21 11:18:00;;;;;;;0.93;0.70;;;32.20;53.20;;;;;;5069005;27;20215;-86
2023/06/21 11:20:32;;;;;;;0.65;0.65;;;32.10;52.70;;;;;;5096951;27;20648;-86
2023/06/21 11:23:09;;;;;;;0.65;0.65;;;32.10;52.80;;;;;;5044006;27;20943;-84
2023/06/21 11:25:38;;;;;;;1.58;0.63;;;32.00;52.90;;;;;;5067560;27;20780;-85
2023/06/21 11:28:26;;;;;;;0.45;0.45;;;31.90;52.60;;;;;;5034567;27;20210;-84
2023/06/21 11:31:09;;;;;;;1.85;1.08;;;31.80;52.90;;;;;;5037915;28;20288;-84
2023/06/21 11:33:52;;;;;;;0.95;0.80;;;31.90;52.60;;;;;;5053828;27;20214;-85
2023/06/21 11:36:31;;;;;;;0.80;0.52;;;31.90;52.60;;;;;;5074965;27;20202;-85
2023/06/21 11:39:27;;;;;;;0.50;0.50;;;32.00;52.60;;;;;;5106853;27;20306;-83
2023/06/21 11:42:00;;;;;;;1.00;0.73;;;32.10;53.00;;;;;;5044111;27;20195;-84
2023/06/21 11:44:31;;;;;;;0.57;0.35;;;32.10;52.60;;;;;;5069496;27;20254;-85
2023/06/21 11:47:16;;;;;;;1.33;0.82;;;32.20;52.20;;;;;;5064722;27;20582;-86
2023/06/21 11:49:50;;;;;;;0.50;0.50;;;32.30;53.20;;;;;;5118346;27;20268;-84
2023/06/21 11:52:24;;;;;;;1.13;0.60;;;32.40;52.10;;;;;;5054921;27;20646;-84
2023/06/21 11:54:58;;;;;;;0.90;0.80;;;32.50;51.80;;;;;;5048848;27;20597;-84
2023/06/21 11:57:26;;;;;;;0.63;0.55;;;32.40;51.60;;;;;;5068963;27;20526;-86
2023/06/21 11:59:56;;;;;;;0.95;0.90;;;32.40;52.00;;;;;;5137717;27;20219;-85
2023/06/21 12:02:25;;;;;;;0.50;0.40;;;32.40;51.60;;;;;;5050364;27;20511;-85
2023/06/21 12:04:55;;;;;;;1.48;0.77;;;32.50;51.70;;;;;;5043101;28;20644;-83
2023/06/21 12:07:23;;;;;;;2.85;1.35;;;32.40;52.10;;;;;;5046586;27;20643;-82
2023/06/21 12:09:52;;;;;;;0.50;0.50;;;32.50;52.00;;;;;;5081810;27;20206;-83
2023/06/21 12:12:27;;;;;;;0.52;0.52;;;32.60;52.00;;;;;;5041598;27;20247;-82
2023/06/21 12:14:58;;;;;;;4.00;0.85;;;32.60;52.00;;;;;;5069900;27;20188;-83
2023/06/21 12:17:26;;;;;;;2.00;1.20;;;32.60;52.10;;;;;;5041238;27;20193;-83
2023/06/21 12:20:03;;;;;;;0.68;0.57;;;32.70;52.10;;;;;;5098796;27;20219;-83
2023/06/21 12:22:31;;;;;;;1.15;0.90;;;32.60;51.50;;;;;;5037527;27;20332;-83
2023/06/21 12:24:59;;;;;;;1.92;1.52;;;32.60;50.50;;;;;;5068089;27;20312;-83
2023/06/21 12:27:29;;;;;;;0.65;0.65;;;32.60;50.20;;;;;;5061172;28;20199;-83
2023/06/21 12:29:57;;;;;;;0.60;0.60;;;32.70;50.40;;;;;;5068190;27;20192;-82
2023/06/21 12:32:26;;;;;;;0.82;0.55;;;32.80;50.70;;;;;;5048834;28;20198;-82
2023/06/21 12:35:02;;;;;;;0.73;0.55;;;32.90;50.80;;;;;;5088408;27;20237;-83
2023/06/21 12:37:32;;;;;;;2.20;0.73;;;33.00;50.70;;;;;;5111872;27;20570;-82
2023/06/21 12:40:04;;;;;;;1.02;0.73;;;33.10;50.50;;;;;;5084808;27;20227;-83
2023/06/21 12:42:33;;;;;;;0.80;0.80;;;33.10;49.80;;;;;;5089378;27;20640;-81
2023/06/21 12:45:04;;;;;;;1.05;0.95;;;33.20;50.00;;;;;;5074562;27;20563;-83
2023/06/21 12:47:33;;;;;;;0.82;0.80;;;33.20;49.30;;;;;;5041990;27;20198;-82
2023/06/21 12:50:01;;;;;;;0.65;0.55;;;33.40;50.10;;;;;;5127625;27;20196;-83
2023/06/21 12:52:30;;;;;;;1.65;0.75;;;33.50;50.40;;;;;;5068853;27;20192;-83
2023/06/21 12:54:59;;;;;;;0.77;0.73;;;33.70;49.80;;;;;;5068464;27;20212;-83
2023/06/21 12:57:29;;;;;;;0.57;0.40;;;33.80;50.10;;;;;;5039426;27;20187;-83
2023/06/21 12:59:59;;;;;;;1.15;0.90;;;33.80;50.00;;;;;;5034227;28;20777;-84
2023/06/21 13:02:27;;;;;;;1.38;0.82;;;33.70;49.50;;;;;;5037884;27;20210;-83
2023/06/21 13:04:58;;;;;;;2.05;0.68;;;33.70;51.00;;;;;;5049464;28;20250;-82